Lions Gate Bridge — H9LV — position and weather

sailwx.info

Track history (hours):
 
Tides and Currents Weather Stations Pressure Air Temp Water Temp Dewpoint Dewpoint Depression Visibility Wind Speed Wind Dir Waves Ship Positions

Lions Gate Bridge

Last reported at 2015-Jul-26 07:17 UTC. Time now 2015-Sep-05 03:45 UTC.
Position N 22°20' E 114°05'.
Warning: this ship's position is 40 days out of date.

Length 284.7 m; beam 40 m.

Type: Cargo ship. MMSI: 351086000.

Date/timePositionNaut miles runAvg speedWind from/ knotsBaromVisibWave heightAir tempDewpointWater temp
2015-Jul-26 07:17N 22°20' E 114°05'3 3.1
2015-Jul-26 06:26N 22°17' E 114°05'0 0.1
2015-Jul-26 05:32N 22°17' E 114°05'0 0.0
2015-Jul-26 04:32N 22°17' E 114°05'0 0.0
2015-Jul-26 03:29N 22°17' E 114°05'0 0.0
2015-Jul-26 02:26N 22°17' E 114°05'0 0.1
2015-Jul-26 01:23N 22°17' E 114°05'0 0.1
2015-Jul-26 00:23N 22°17' E 114°05'0 0.1
2015-Jul-25 23:32N 22°17' E 114°05'0 0.1
2015-Jul-25 22:33N 22°17' E 114°05'3 3.2
2015-Jul-25 21:31N 22°20' E 114°08'0 0.0
2015-Jul-25 20:31N 22°20' E 114°08'0 0.0
2015-Jul-25 19:31N 22°20' E 114°08'0 0.0
2015-Jul-25 18:31N 22°20' E 114°08'0 0.0
2015-Jul-25 17:31N 22°20' E 114°08'0 0.0
2015-Jul-25 16:31N 22°20' E 114°08'0 0.0
2015-Jul-25 15:31N 22°20' E 114°08'0 0.0
2015-Jul-25 14:31N 22°20' E 114°08'0 0.0
2015-Jul-25 13:31N 22°20' E 114°08'0 0.0
2015-Jul-25 12:31N 22°20' E 114°08'0 0.0
2015-Jul-25 11:28N 22°20' E 114°08'0 0.0
2015-Jul-25 10:28N 22°20' E 114°08'0 0.0
2015-Jul-25 09:31N 22°20' E 114°08'0 0.0
2015-Jul-25 08:28N 22°20' E 114°08'0 0.0
2015-Jul-25 07:28N 22°20' E 114°08'0 0.0
2015-Jul-25 06:32N 22°20' E 114°08'7 6.3
2015-Jul-25 05:25N 22°13' E 114°10'6 7.2
2015-Jul-25 04:33N 22°09' E 114°15'9 9.2
2015-Jul-25 03:32N 22°11' E 114°25'1110.8
2015-Jul-25 02:33N 22°21' E 114°29'18 9.1
2015-Jul-25 00:33N 22°34' E 114°16'0 0.2
2015-Jul-24 23:29N 22°34' E 114°16'0 0.0
2015-Jul-24 22:29N 22°34' E 114°16'0 0.0
2015-Jul-24 21:29N 22°34' E 114°16'0 0.0
2015-Jul-24 20:29N 22°34' E 114°16'0 0.0
2015-Jul-24 19:29N 22°34' E 114°16'0 0.0
2015-Jul-24 18:29N 22°34' E 114°16'0 0.0
2015-Jul-24 17:29N 22°34' E 114°16'0 0.0
2015-Jul-24 16:29N 22°34' E 114°16'0 0.0
2015-Jul-24 15:29N 22°34' E 114°16'0 0.0
2015-Jul-24 14:17N 22°34' E 114°16'0 0.0
2015-Jul-24 13:23N 22°34' E 114°16'1 0.6
2015-Jul-24 12:33N 22°34' E 114°16'15 6.2
2015-Jul-24 10:12N 22°25' E 114°29'19112.2
2015-Jul-23 18:33N 23°30' E 117°44'1313.4
2015-Jul-23 17:33N 23°38' E 117°55'1413.7
2015-Jul-23 16:33N 23°46' E 118°08'1413.9
2015-Jul-23 15:32N 23°55' E 118°19'1212.2
2015-Jul-23 14:34N 24°07' E 118°22'1413.7
2015-Jul-23 13:34N 24°18' E 118°13'1414.2
2015-Jul-23 12:33N 24°27' E 118°00'2 0.9
2015-Jul-23 10:30N 24°27' E 117°59'0 0.0
2015-Jul-23 09:30N 24°27' E 117°59'0 0.0
2015-Jul-23 05:30N 24°27' E 117°59'0 0.0
2015-Jul-23 04:24N 24°27' E 117°59'0 0.0
2015-Jul-23 03:24N 24°27' E 117°59'0 0.0
2015-Jul-23 02:24N 24°27' E 117°59'0 0.0
2015-Jul-23 01:18N 24°27' E 117°59'0 0.0
2015-Jul-23 00:12N 24°27' E 117°59'0 0.0
2015-Jul-22 23:30N 24°27' E 117°59'0 0.0
2015-Jul-22 18:06N 24°27' E 117°59'0 0.0
2015-Jul-22 17:12N 24°27' E 117°59'0 0.0
2015-Jul-22 16:30N 24°27' E 117°59'0 0.0
2015-Jul-22 15:24N 24°27' E 117°59'0 0.0
2015-Jul-22 14:30N 24°27' E 117°59'0 0.1
2015-Jul-22 12:32N 24°27' E 117°59'10 9.9
2015-Jul-22 11:33N 24°22' E 118°08'1211.5
2015-Jul-22 10:33N 24°15' E 118°17'5 4.1
2015-Jul-22 09:17N 24°15' E 118°23'0 0.0
2015-Jul-22 08:17N 24°15' E 118°23'0 0.1
2015-Jul-22 07:29N 24°15' E 118°23'0 0.0
2015-Jul-22 06:29N 24°15' E 118°23'0 0.0
2015-Jul-22 04:27N 24°15' E 118°23'0 0.0
2015-Jul-22 03:23N 24°15' E 118°23'0 0.0
2015-Jul-22 02:21N 24°15' E 118°23'0 0.0
2015-Jul-22 01:33N 24°15' E 118°23'0 0.0
2015-Jul-22 00:29N 24°15' E 118°23'0 0.0
2015-Jul-21 23:27N 24°15' E 118°23'0 0.0
2015-Jul-21 22:17N 24°15' E 118°23'0 0.1
2015-Jul-21 21:29N 24°15' E 118°23'0 0.0
2015-Jul-21 17:33N 24°15' E 118°23'0 0.0
2015-Jul-21 16:11N 24°15' E 118°23'0 0.2
2015-Jul-21 15:30N 24°14' E 118°23'11716.0
2015-Jul-21 08:11N 22°52' E 119°53'1219.4
2015-Jul-21 07:33N 22°43' E 120°02'1717.3
2015-Jul-21 06:33N 22°33' E 120°17'2 2.1
2015-Jul-21 05:30N 22°33' E 120°20'0 0.0
2015-Jul-21 04:30N 22°33' E 120°20'0 0.0
2015-Jul-21 03:24N 22°33' E 120°20'0 0.0
2015-Jul-21 02:30N 22°33' E 120°20'0 0.0
2015-Jul-21 01:30N 22°33' E 120°20'0 0.0
2015-Jul-20 19:04N 22°33' E 120°20'1 1.1
2015-Jul-20 18:24N 22°33' E 120°19'6 7.5
2015-Jul-20 17:33N 22°32' E 120°12'1818.0
2015-Jul-20 16:33N 22°45' E 119°60'  
2015-Jul-18 12:32N 33°42' E 134°50'2121.4
2015-Jul-18 11:33N 34°02' E 134°56'1615.6
2015-Jul-18 10:33N 34°18' E 134°59'1717.0
2015-Jul-18 09:33N 34°32' E 135°10'10 9.3
2015-Jul-18 08:31N 34°41' E 135°16'0 0.0
2015-Jul-18 07:31N 34°41' E 135°16'0 0.0
2015-Jul-18 06:31N 34°41' E 135°16'0 0.0
2015-Jul-18 05:28N 34°41' E 135°16'0 0.0
2015-Jul-18 04:31N 34°41' E 135°16'0 0.0
2015-Jul-18 03:31N 34°41' E 135°16'0 0.0
2015-Jul-18 02:31N 34°41' E 135°16'0 0.0
2015-Jul-18 01:31N 34°41' E 135°16'0 0.0
2015-Jul-18 00:33N 34°41' E 135°16'3 3.4
2015-Jul-17 23:33N 34°37' E 135°16'1615.6
2015-Jul-17 22:33N 34°24' E 135°06'1313.1
2015-Jul-17 21:34N 34°12' E 135°01'1 0.7
2015-Jul-17 20:33N 34°12' E 135°02'1313.0
2015-Jul-17 19:33N 33°59' E 134°60'  
Track history (hours):
 
Tides and Currents Weather Stations Pressure Air Temp Water Temp Dewpoint Dewpoint Depression Visibility Wind Speed Wind Dir Waves Ship Positions

Lions Gate Bridge

Last reported at 2015-Jul-26 07:17 UTC. Time now 2015-Sep-05 03:45 UTC.
Position N 22°20' E 114°05'.
Warning: this ship's position is 40 days out of date.

Length 284.7 m; beam 40 m.

Type: Cargo ship. MMSI: 351086000.

Date/timePositionNaut miles runAvg speedWind from/ knotsBaromVisibWave heightAir tempDewpointWater temp
2015-Jul-26 07:17N 22°20' E 114°05'3 3.1
2015-Jul-26 06:26N 22°17' E 114°05'0 0.1
2015-Jul-26 05:32N 22°17' E 114°05'0 0.0
2015-Jul-26 04:32N 22°17' E 114°05'0 0.0
2015-Jul-26 03:29N 22°17' E 114°05'0 0.0
2015-Jul-26 02:26N 22°17' E 114°05'0 0.1
2015-Jul-26 01:23N 22°17' E 114°05'0 0.1
2015-Jul-26 00:23N 22°17' E 114°05'0 0.1
2015-Jul-25 23:32N 22°17' E 114°05'0 0.1
2015-Jul-25 22:33N 22°17' E 114°05'3 3.2
2015-Jul-25 21:31N 22°20' E 114°08'0 0.0
2015-Jul-25 20:31N 22°20' E 114°08'0 0.0
2015-Jul-25 19:31N 22°20' E 114°08'0 0.0
2015-Jul-25 18:31N 22°20' E 114°08'0 0.0
2015-Jul-25 17:31N 22°20' E 114°08'0 0.0
2015-Jul-25 16:31N 22°20' E 114°08'0 0.0
2015-Jul-25 15:31N 22°20' E 114°08'0 0.0
2015-Jul-25 14:31N 22°20' E 114°08'0 0.0
2015-Jul-25 13:31N 22°20' E 114°08'0 0.0
2015-Jul-25 12:31N 22°20' E 114°08'0 0.0
2015-Jul-25 11:28N 22°20' E 114°08'0 0.0
2015-Jul-25 10:28N 22°20' E 114°08'0 0.0
2015-Jul-25 09:31N 22°20' E 114°08'0 0.0
2015-Jul-25 08:28N 22°20' E 114°08'0 0.0
2015-Jul-25 07:28N 22°20' E 114°08'0 0.0
2015-Jul-25 06:32N 22°20' E 114°08'7 6.3
2015-Jul-25 05:25N 22°13' E 114°10'6 7.2
2015-Jul-25 04:33N 22°09' E 114°15'9 9.2
2015-Jul-25 03:32N 22°11' E 114°25'1110.8
2015-Jul-25 02:33N 22°21' E 114°29'18 9.1
2015-Jul-25 00:33N 22°34' E 114°16'0 0.2
2015-Jul-24 23:29N 22°34' E 114°16'0 0.0
2015-Jul-24 22:29N 22°34' E 114°16'0 0.0
2015-Jul-24 21:29N 22°34' E 114°16'0 0.0
2015-Jul-24 20:29N 22°34' E 114°16'0 0.0
2015-Jul-24 19:29N 22°34' E 114°16'0 0.0
2015-Jul-24 18:29N 22°34' E 114°16'0 0.0
2015-Jul-24 17:29N 22°34' E 114°16'0 0.0
2015-Jul-24 16:29N 22°34' E 114°16'0 0.0
2015-Jul-24 15:29N 22°34' E 114°16'0 0.0
2015-Jul-24 14:17N 22°34' E 114°16'0 0.0
2015-Jul-24 13:23N 22°34' E 114°16'1 0.6
2015-Jul-24 12:33N 22°34' E 114°16'15 6.2
2015-Jul-24 10:12N 22°25' E 114°29'19112.2
2015-Jul-23 18:33N 23°30' E 117°44'1313.4
2015-Jul-23 17:33N 23°38' E 117°55'1413.7
2015-Jul-23 16:33N 23°46' E 118°08'1413.9
2015-Jul-23 15:32N 23°55' E 118°19'1212.2
2015-Jul-23 14:34N 24°07' E 118°22'1413.7
2015-Jul-23 13:34N 24°18' E 118°13'1414.2
2015-Jul-23 12:33N 24°27' E 118°00'2 0.9
2015-Jul-23 10:30N 24°27' E 117°59'0 0.0
2015-Jul-23 09:30N 24°27' E 117°59'0 0.0
2015-Jul-23 05:30N 24°27' E 117°59'0 0.0
2015-Jul-23 04:24N 24°27' E 117°59'0 0.0
2015-Jul-23 03:24N 24°27' E 117°59'0 0.0
2015-Jul-23 02:24N 24°27' E 117°59'0 0.0
2015-Jul-23 01:18N 24°27' E 117°59'0 0.0
2015-Jul-23 00:12N 24°27' E 117°59'0 0.0
2015-Jul-22 23:30N 24°27' E 117°59'0 0.0
2015-Jul-22 18:06N 24°27' E 117°59'0 0.0
2015-Jul-22 17:12N 24°27' E 117°59'0 0.0
2015-Jul-22 16:30N 24°27' E 117°59'0 0.0
2015-Jul-22 15:24N 24°27' E 117°59'0 0.0
2015-Jul-22 14:30N 24°27' E 117°59'0 0.1
2015-Jul-22 12:32N 24°27' E 117°59'10 9.9
2015-Jul-22 11:33N 24°22' E 118°08'1211.5
2015-Jul-22 10:33N 24°15' E 118°17'5 4.1
2015-Jul-22 09:17N 24°15' E 118°23'0 0.0
2015-Jul-22 08:17N 24°15' E 118°23'0 0.1
2015-Jul-22 07:29N 24°15' E 118°23'0 0.0
2015-Jul-22 06:29N 24°15' E 118°23'0 0.0
2015-Jul-22 04:27N 24°15' E 118°23'0 0.0
2015-Jul-22 03:23N 24°15' E 118°23'0 0.0
2015-Jul-22 02:21N 24°15' E 118°23'0 0.0
2015-Jul-22 01:33N 24°15' E 118°23'0 0.0
2015-Jul-22 00:29N 24°15' E 118°23'0 0.0
2015-Jul-21 23:27N 24°15' E 118°23'0 0.0
2015-Jul-21 22:17N 24°15' E 118°23'0 0.1
2015-Jul-21 21:29N 24°15' E 118°23'0 0.0
2015-Jul-21 17:33N 24°15' E 118°23'0 0.0
2015-Jul-21 16:11N 24°15' E 118°23'0 0.2
2015-Jul-21 15:30N 24°14' E 118°23'11716.0
2015-Jul-21 08:11N 22°52' E 119°53'1219.4
2015-Jul-21 07:33N 22°43' E 120°02'1717.3
2015-Jul-21 06:33N 22°33' E 120°17'2 2.1
2015-Jul-21 05:30N 22°33' E 120°20'0 0.0
2015-Jul-21 04:30N 22°33' E 120°20'0 0.0
2015-Jul-21 03:24N 22°33' E 120°20'0 0.0
2015-Jul-21 02:30N 22°33' E 120°20'0 0.0
2015-Jul-21 01:30N 22°33' E 120°20'0 0.0
2015-Jul-20 19:04N 22°33' E 120°20'1 1.1
2015-Jul-20 18:24N 22°33' E 120°19'6 7.5
2015-Jul-20 17:33N 22°32' E 120°12'1818.0
2015-Jul-20 16:33N 22°45' E 119°60'  
2015-Jul-18 12:32N 33°42' E 134°50'2121.4
2015-Jul-18 11:33N 34°02' E 134°56'1615.6
2015-Jul-18 10:33N 34°18' E 134°59'1717.0
2015-Jul-18 09:33N 34°32' E 135°10'10 9.3
2015-Jul-18 08:31N 34°41' E 135°16'0 0.0
2015-Jul-18 07:31N 34°41' E 135°16'0 0.0
2015-Jul-18 06:31N 34°41' E 135°16'0 0.0
2015-Jul-18 05:28N 34°41' E 135°16'0 0.0
2015-Jul-18 04:31N 34°41' E 135°16'0 0.0
2015-Jul-18 03:31N 34°41' E 135°16'0 0.0
2015-Jul-18 02:31N 34°41' E 135°16'0 0.0
2015-Jul-18 01:31N 34°41' E 135°16'0 0.0
2015-Jul-18 00:33N 34°41' E 135°16'3 3.4
2015-Jul-17 23:33N 34°37' E 135°16'1615.6
2015-Jul-17 22:33N 34°24' E 135°06'1313.1
2015-Jul-17 21:34N 34°12' E 135°01'1 0.7
2015-Jul-17 20:33N 34°12' E 135°02'1313.0
2015-Jul-17 19:33N 33°59' E 134°60'  

Dump ship's entire track history